Time;durP1;ratioP1;P1;durP2;ratioP2;P2;SDS_P1;SDS_P2;PMS_P1;PMS_P2;Temp;Humidity;BMP_temperature;BMP_pressure;BME280_temperature;BME280_humidity;BME280_pressure;Samples;Min_cycle;Max_cycle;Signal;HPM_P1;HPM_P2
2022/09/22 00:01:13;;;;;;;4.90;3.53;;;12.30;99.90;;;;;;5081466;28;20329;-87
2022/09/22 00:04:05;;;;;;;7.57;3.63;;;12.40;99.90;;;;;;5082378;28;20234;-85
2022/09/22 00:06:56;;;;;;;4.88;3.80;;;12.40;99.90;;;;;;5064672;28;20361;-87
2022/09/22 00:09:44;;;;;;;6.03;3.45;;;12.30;99.90;;;;;;5082391;28;21180;-87
2022/09/22 00:12:34;;;;;;;4.53;3.50;;;12.30;99.90;;;;;;5080958;28;20231;-86
2022/09/22 00:15:24;;;;;;;4.43;3.40;;;12.30;99.90;;;;;;5067121;28;20228;-84
2022/09/22 00:18:12;;;;;;;5.85;3.63;;;12.30;99.90;;;;;;5083262;28;20226;-85
2022/09/22 00:21:08;;;;;;;5.47;3.70;;;12.20;99.90;;;;;;5067004;28;20227;-87
2022/09/22 00:23:57;;;;;;;6.93;3.88;;;12.40;99.90;;;;;;5086427;28;20440;-88
2022/09/22 00:26:45;;;;;;;4.40;3.53;;;12.30;99.90;;;;;;5068794;28;20207;-87
2022/09/22 00:29:34;;;;;;;6.18;3.72;;;12.30;99.90;;;;;;5080313;28;20230;-88
2022/09/22 00:32:23;;;;;;;5.90;3.65;;;12.20;99.90;;;;;;5082485;28;20227;-87
2022/09/22 00:35:12;;;;;;;5.93;3.70;;;12.20;99.90;;;;;;5078566;28;20223;-86
2022/09/22 00:38:00;;;;;;;7.55;4.13;;;12.30;99.90;;;;;;5079229;28;20235;-86
2022/09/22 00:40:49;;;;;;;6.03;3.97;;;12.30;99.90;;;;;;5076462;28;20223;-84
2022/09/22 00:43:39;;;;;;;6.82;3.80;;;12.30;99.90;;;;;;5071648;28;20702;-86
2022/09/22 00:46:28;;;;;;;6.47;4.32;;;12.30;99.90;;;;;;5077797;28;20305;-85
2022/09/22 00:49:22;;;;;;;6.25;3.95;;;12.20;99.90;;;;;;5080115;28;20223;-85
2022/09/22 00:52:12;;;;;;;7.78;4.50;;;12.30;99.90;;;;;;5065091;28;20216;-84
2022/09/22 00:55:04;;;;;;;9.30;4.72;;;12.20;99.90;;;;;;5078789;28;20227;-85
2022/09/22 00:57:54;;;;;;;7.75;4.80;;;12.30;99.90;;;;;;5079950;28;20291;-87
2022/09/22 01:00:43;;;;;;;7.47;5.05;;;12.20;99.90;;;;;;5082625;28;20219;-87
2022/09/22 01:03:31;;;;;;;10.85;5.45;;;12.10;99.90;;;;;;5082836;28;20227;-87
2022/09/22 01:06:25;;;;;;;8.68;5.97;;;12.10;99.90;;;;;;5065035;28;20244;-86
2022/09/22 01:09:14;;;;;;;10.20;7.35;;;12.10;99.90;;;;;;5084466;28;20597;-87
2022/09/22 01:12:04;;;;;;;9.85;6.75;;;12.20;99.90;;;;;;5078804;28;20288;-86
2022/09/22 01:15:08;;;;;;;10.13;6.93;;;12.30;99.90;;;;;;5079540;28;20239;-86
2022/09/22 01:18:11;;;;;;;9.60;6.60;;;12.20;99.90;;;;;;5067165;28;20219;-87
2022/09/22 01:21:36;;;;;;;9.35;6.28;;;12.10;99.90;;;;;;5079604;28;20227;-86
2022/09/22 01:24:54;;;;;;;8.50;6.25;;;12.10;99.90;;;;;;5051724;28;20219;-85
2022/09/22 01:28:18;;;;;;;7.57;6.05;;;12.10;99.90;;;;;;5078700;28;20219;-86
2022/09/22 01:31:16;;;;;;;8.15;6.30;;;12.10;99.90;;;;;;5077721;28;20280;-86
2022/09/22 01:34:10;;;;;;;7.18;6.40;;;12.00;99.90;;;;;;5077236;28;20235;-86
2022/09/22 01:37:04;;;;;;;9.20;6.72;;;12.00;99.90;;;;;;5076778;28;20353;-85
2022/09/22 01:39:57;;;;;;;9.07;6.72;;;11.90;99.90;;;;;;5080253;28;20310;-86
2022/09/22 01:42:51;;;;;;;9.80;6.85;;;12.00;99.90;;;;;;5079672;28;20219;-85
2022/09/22 01:45:43;;;;;;;11.50;6.97;;;11.90;99.90;;;;;;5062534;28;20228;-85
2022/09/22 01:48:35;;;;;;;8.82;7.00;;;11.90;99.90;;;;;;5080341;28;20366;-85
2022/09/22 01:51:27;;;;;;;10.07;6.68;;;11.90;99.90;;;;;;5065809;28;20324;-86
2022/09/22 01:54:19;;;;;;;10.65;7.15;;;12.00;99.90;;;;;;5079157;28;20745;-85
2022/09/22 01:57:14;;;;;;;10.73;7.05;;;12.20;99.90;;;;;;5065968;28;20224;-85
2022/09/22 02:00:06;;;;;;;11.10;7.97;;;12.10;99.90;;;;;;5077961;28;20262;-85
2022/09/22 02:03:06;;;;;;;9.50;7.50;;;12.20;99.90;;;;;;5077274;28;20230;-86
2022/09/22 02:06:00;;;;;;;11.52;8.50;;;12.00;99.90;;;;;;5077172;28;20782;-86
2022/09/22 02:08:56;;;;;;;11.68;8.23;;;12.00;99.90;;;;;;5074903;28;20231;-86
2022/09/22 02:11:44;;;;;;;11.07;7.85;;;12.00;99.90;;;;;;5065567;28;20930;-86
2022/09/22 02:14:33;;;;;;;11.25;7.82;;;12.10;99.90;;;;;;5079873;28;20311;-85
2022/09/22 02:17:22;;;;;;;9.35;7.80;;;12.10;99.90;;;;;;5078464;28;20564;-85
2022/09/22 02:20:11;;;;;;;11.27;8.07;;;12.10;99.90;;;;;;5078302;28;20238;-87
2022/09/22 02:23:01;;;;;;;10.63;8.40;;;12.20;99.90;;;;;;5078434;28;20231;-86
2022/09/22 02:25:50;;;;;;;9.68;8.18;;;12.20;99.90;;;;;;5076077;28;20227;-87
2022/09/22 02:28:41;;;;;;;12.40;8.10;;;12.00;99.90;;;;;;5078713;28;20737;-86
2022/09/22 02:31:32;;;;;;;10.48;7.38;;;12.10;99.90;;;;;;5079172;28;20227;-87
2022/09/22 02:34:21;;;;;;;11.38;7.65;;;12.20;99.90;;;;;;5075316;28;21045;-86
2022/09/22 02:37:19;;;;;;;8.50;7.60;;;12.10;99.90;;;;;;5059219;28;20219;-86
2022/09/22 02:40:17;;;;;;;11.07;7.78;;;12.10;99.90;;;;;;5077501;28;21078;-86
2022/09/22 02:43:12;;;;;;;11.88;7.55;;;12.10;99.90;;;;;;5063501;28;20324;-87
2022/09/22 02:46:08;;;;;;;9.02;7.53;;;12.10;99.90;;;;;;5066782;28;20258;-87
2022/09/22 02:49:02;;;;;;;11.10;7.90;;;12.10;99.90;;;;;;5066190;28;20297;-87
2022/09/22 02:51:52;;;;;;;10.85;8.30;;;12.10;99.90;;;;;;5077737;28;20220;-88
2022/09/22 02:54:41;;;;;;;13.82;9.02;;;12.10;99.90;;;;;;5064501;28;20958;-87
2022/09/22 02:57:31;;;;;;;12.32;9.93;;;12.00;99.90;;;;;;5077151;28;20235;-86
2022/09/22 03:00:19;;;;;;;13.18;10.15;;;12.10;99.90;;;;;;5064825;28;20219;-85
2022/09/22 03:03:09;;;;;;;15.23;10.07;;;12.10;99.90;;;;;;5083627;28;20232;-86
2022/09/22 03:05:58;;;;;;;17.77;10.60;;;12.20;99.90;;;;;;5068913;28;20803;-86
2022/09/22 03:08:46;;;;;;;16.33;10.13;;;12.10;99.90;;;;;;5083150;28;20245;-86
2022/09/22 03:11:35;;;;;;;13.65;10.23;;;12.10;99.90;;;;;;5068177;28;20292;-85
2022/09/22 03:14:24;;;;;;;18.13;11.60;;;12.10;99.90;;;;;;5085876;28;20227;-84
2022/09/22 03:17:13;;;;;;;18.27;13.25;;;12.10;99.90;;;;;;5072870;28;20233;-86
2022/09/22 03:20:02;;;;;;;21.88;14.70;;;12.10;99.90;;;;;;5082256;28;20283;-86
2022/09/22 03:22:51;;;;;;;19.75;15.93;;;12.10;99.90;;;;;;5067822;28;20736;-85
2022/09/22 03:25:39;;;;;;;19.38;15.75;;;12.10;99.90;;;;;;5067011;28;20306;-87
2022/09/22 03:28:28;;;;;;;24.98;15.95;;;12.10;99.90;;;;;;5084853;28;20898;-85
2022/09/22 03:31:18;;;;;;;20.60;14.07;;;12.10;99.90;;;;;;5084073;28;20283;-87
2022/09/22 03:34:07;;;;;;;17.23;12.27;;;12.00;99.90;;;;;;5069262;28;20228;-85
2022/09/22 03:36:55;;;;;;;15.68;11.85;;;12.10;99.90;;;;;;5065396;28;20303;-86
2022/09/22 03:39:44;;;;;;;16.05;11.60;;;12.10;99.90;;;;;;5081022;28;20227;-87
2022/09/22 03:42:34;;;;;;;16.55;10.73;;;12.00;99.90;;;;;;5070283;28;20544;-86
2022/09/22 03:45:23;;;;;;;14.05;10.30;;;12.10;99.90;;;;;;5083596;28;20238;-85
2022/09/22 03:48:13;;;;;;;13.60;10.25;;;12.10;99.90;;;;;;5082500;28;20597;-85
2022/09/22 03:51:02;;;;;;;14.88;10.70;;;12.00;99.90;;;;;;5057767;28;20224;-85
2022/09/22 03:53:51;;;;;;;16.50;11.27;;;12.20;99.90;;;;;;5063815;28;20216;-85
2022/09/22 03:56:39;;;;;;;11.65;10.43;;;12.10;99.90;;;;;;5057896;28;20688;-85
2022/09/22 03:59:28;;;;;;;14.05;10.80;;;12.10;99.90;;;;;;5069489;28;20227;-85
2022/09/22 04:02:17;;;;;;;16.80;11.18;;;12.10;99.90;;;;;;5071786;28;20227;-85
2022/09/22 04:05:08;;;;;;;20.42;11.30;;;12.20;99.90;;;;;;5068838;28;20901;-85
2022/09/22 04:07:56;;;;;;;19.23;11.35;;;12.20;99.90;;;;;;5070210;28;20220;-85
2022/09/22 04:10:45;;;;;;;18.70;11.20;;;12.20;99.90;;;;;;5073109;28;20227;-86
2022/09/22 04:13:34;;;;;;;16.02;11.43;;;12.20;99.90;;;;;;5072387;28;20231;-86
2022/09/22 04:16:23;;;;;;;16.58;11.57;;;12.20;99.90;;;;;;5068904;28;20351;-86
2022/09/22 04:19:12;;;;;;;17.25;12.23;;;12.20;99.90;;;;;;5055657;28;20306;-86
2022/09/22 04:22:02;;;;;;;18.13;12.15;;;12.20;99.90;;;;;;5073754;28;20976;-85
2022/09/22 04:24:51;;;;;;;18.77;11.95;;;12.10;99.90;;;;;;5073686;28;20647;-86
2022/09/22 04:27:39;;;;;;;17.65;11.55;;;12.10;99.90;;;;;;5067714;28;20228;-86
2022/09/22 04:30:28;;;;;;;21.42;11.82;;;12.10;99.90;;;;;;5058726;28;20220;-86
2022/09/22 04:33:17;;;;;;;17.15;11.73;;;12.10;99.90;;;;;;5069265;28;20227;-86
2022/09/22 04:36:06;;;;;;;19.05;11.63;;;12.20;99.90;;;;;;5049645;28;20314;-86
2022/09/22 04:38:56;;;;;;;16.40;12.73;;;12.10;99.90;;;;;;5068018;28;20269;-86
2022/09/22 04:41:44;;;;;;;18.70;11.30;;;12.00;99.90;;;;;;5065718;28;20314;-86
2022/09/22 04:44:33;;;;;;;13.43;11.40;;;12.10;99.90;;;;;;5066482;28;20224;-85
2022/09/22 04:47:22;;;;;;;15.43;11.27;;;12.20;99.90;;;;;;5048127;28;20347;-85
2022/09/22 04:50:11;;;;;;;16.08;11.05;;;12.20;99.90;;;;;;5065540;28;20401;-86
2022/09/22 04:52:59;;;;;;;15.15;11.60;;;12.30;99.90;;;;;;5065037;28;20220;-87
2022/09/22 04:55:50;;;;;;;15.32;11.93;;;12.20;99.90;;;;;;5063564;28;20281;-86
2022/09/22 04:58:39;;;;;;;17.05;11.27;;;12.20;99.90;;;;;;5063650;28;20263;-85
2022/09/22 05:01:27;;;;;;;17.60;12.30;;;12.30;99.90;;;;;;5065546;28;20232;-86
2022/09/22 05:04:16;;;;;;;15.30;12.70;;;12.40;99.90;;;;;;5062894;28;20228;-87
2022/09/22 05:07:05;;;;;;;15.82;11.27;;;12.40;99.90;;;;;;5075147;28;20362;-87
2022/09/22 05:09:54;;;;;;;14.65;12.02;;;12.30;99.90;;;;;;5062351;28;20223;-86
2022/09/22 05:12:44;;;;;;;15.50;12.00;;;12.20;99.90;;;;;;5061434;28;20252;-87
2022/09/22 05:15:33;;;;;;;14.95;12.07;;;12.30;99.90;;;;;;5075497;28;20232;-84
2022/09/22 05:18:22;;;;;;;15.80;12.15;;;12.30;99.90;;;;;;5059809;28;20753;-84
2022/09/22 05:21:11;;;;;;;16.10;12.32;;;12.30;99.90;;;;;;5061525;28;20220;-85
2022/09/22 05:23:59;;;;;;;15.73;12.10;;;12.50;99.90;;;;;;5061725;28;20224;-86
2022/09/22 05:26:48;;;;;;;15.63;12.45;;;12.50;99.90;;;;;;5058961;28;20291;-88
2022/09/22 05:29:38;;;;;;;15.15;12.50;;;12.50;99.90;;;;;;5063304;28;20276;-87
2022/09/22 05:32:26;;;;;;;15.27;12.32;;;12.40;99.90;;;;;;5066094;28;20266;-87
2022/09/22 05:35:18;;;;;;;17.40;12.18;;;12.50;99.90;;;;;;5064107;28;20228;-88
2022/09/22 05:38:06;;;;;;;16.90;12.95;;;12.60;99.90;;;;;;5071276;28;20224;-91
2022/09/22 05:40:55;;;;;;;14.35;12.13;;;12.60;99.90;;;;;;5067798;28;20297;-89
2022/09/22 05:43:44;;;;;;;14.95;12.30;;;12.60;99.90;;;;;;5065635;28;20223;-88
2022/09/22 05:46:34;;;;;;;15.88;12.98;;;12.60;99.90;;;;;;5070414;28;20236;-88
2022/09/22 05:49:23;;;;;;;16.48;13.05;;;12.70;99.90;;;;;;5062450;28;20228;-87
2022/09/22 05:52:12;;;;;;;16.73;12.65;;;12.70;99.90;;;;;;5063776;28;20255;-87
2022/09/22 05:55:00;;;;;;;14.38;11.52;;;12.60;99.90;;;;;;5058837;28;20239;-80
2022/09/22 05:57:56;;;;;;;17.83;13.30;;;12.70;99.90;;;;;;5045606;28;20228;-86
2022/09/22 06:00:44;;;;;;;15.75;13.00;;;12.70;99.90;;;;;;5060795;28;20233;-83
2022/09/22 06:03:35;;;;;;;19.92;13.80;;;12.70;99.90;;;;;;5061245;28;20220;-81
2022/09/22 06:06:23;;;;;;;16.85;12.38;;;12.70;99.90;;;;;;5043367;28;20260;-81
2022/09/22 06:09:11;;;;;;;18.30;13.15;;;12.80;99.90;;;;;;5056811;28;20883;-82
2022/09/22 06:12:00;;;;;;;15.65;12.73;;;12.70;99.90;;;;;;5055917;28;20595;-81
2022/09/22 06:14:48;;;;;;;18.55;12.63;;;12.70;99.90;;;;;;5058092;28;20299;-82
2022/09/22 06:17:37;;;;;;;16.25;12.00;;;12.80;99.90;;;;;;5042744;28;20223;-83
2022/09/22 06:20:28;;;;;;;17.67;12.98;;;12.70;99.90;;;;;;5058219;28;20211;-82
2022/09/22 06:23:16;;;;;;;22.88;12.45;;;12.80;99.90;;;;;;5058275;28;20224;-83
2022/09/22 06:26:05;;;;;;;17.25;11.40;;;12.90;99.90;;;;;;5058971;28;20224;-86
2022/09/22 06:28:54;;;;;;;14.77;12.38;;;12.90;99.90;;;;;;5044325;28;20284;-85
2022/09/22 06:31:43;;;;;;;17.50;11.40;;;12.90;99.90;;;;;;5060172;28;20224;-85
2022/09/22 06:34:32;;;;;;;13.60;10.73;;;12.90;99.90;;;;;;5043675;28;20303;-84
2022/09/22 06:37:22;;;;;;;19.55;12.68;;;12.90;99.90;;;;;;5037392;28;20318;-87
2022/09/22 06:40:11;;;;;;;14.60;11.43;;;12.90;99.90;;;;;;5060791;28;20227;-83
2022/09/22 06:43:11;;;;;;;14.90;12.43;;;13.00;99.90;;;;;;5043649;28;20223;-83
2022/09/22 06:46:01;;;;;;;14.30;11.38;;;13.00;99.90;;;;;;5059711;28;20737;-83
2022/09/22 06:48:50;;;;;;;19.20;13.07;;;13.00;99.90;;;;;;5059318;28;20220;-82
2022/09/22 06:51:39;;;;;;;16.85;12.88;;;13.20;99.90;;;;;;5060162;28;20239;-82
2022/09/22 06:54:30;;;;;;;16.13;12.80;;;13.30;99.90;;;;;;5060879;28;20230;-82
2022/09/22 06:57:18;;;;;;;17.23;12.98;;;13.30;99.90;;;;;;5063798;28;20231;-81
2022/09/22 07:00:08;;;;;;;15.52;12.00;;;13.30;99.90;;;;;;5059905;28;20215;-82
2022/09/22 07:03:03;;;;;;;15.20;11.88;;;13.40;99.90;;;;;;5078031;28;22082;-82
2022/09/22 07:05:54;;;;;;;16.42;12.02;;;13.40;99.90;;;;;;5078583;28;20540;-82
2022/09/22 07:08:43;;;;;;;14.15;11.25;;;13.30;99.90;;;;;;5078749;28;20761;-83
2022/09/22 07:11:33;;;;;;;16.35;11.27;;;13.40;99.90;;;;;;5063826;28;20223;-86
2022/09/22 07:14:28;;;;;;;21.52;12.95;;;13.40;99.90;;;;;;5065049;28;20227;-82
2022/09/22 07:17:17;;;;;;;21.13;14.15;;;13.50;99.90;;;;;;5077510;28;20255;-82
2022/09/22 07:20:07;;;;;;;20.88;14.90;;;13.40;99.90;;;;;;5078843;28;20220;-83
2022/09/22 07:22:59;;;;;;;17.95;14.30;;;13.60;99.90;;;;;;5077354;28;20272;-82
2022/09/22 07:25:59;;;;;;;17.85;14.48;;;13.70;99.90;;;;;;5063122;28;20219;-82
2022/09/22 07:28:52;;;;;;;21.45;15.60;;;13.80;99.90;;;;;;5062927;28;20756;-81
2022/09/22 07:31:41;;;;;;;18.67;15.60;;;13.70;99.90;;;;;;5076477;28;20227;-82
2022/09/22 07:34:31;;;;;;;18.70;15.80;;;13.80;99.90;;;;;;5078113;28;20224;-82
2022/09/22 07:37:19;;;;;;;24.38;14.52;;;13.70;99.90;;;;;;5078727;28;20250;-82
2022/09/22 07:40:09;;;;;;;20.67;14.18;;;13.90;99.90;;;;;;5067367;28;20314;-82
2022/09/22 07:42:57;;;;;;;19.48;13.90;;;13.90;99.90;;;;;;5080045;28;21066;-82
2022/09/22 07:45:56;;;;;;;22.60;13.23;;;14.00;99.90;;;;;;5077932;28;20226;-82
2022/09/22 07:48:46;;;;;;;15.63;12.13;;;14.10;99.90;;;;;;5081105;28;20401;-82
2022/09/22 07:51:37;;;;;;;14.85;11.85;;;14.10;99.90;;;;;;5065449;28;20389;-82
2022/09/22 07:54:27;;;;;;;14.65;11.18;;;14.10;99.90;;;;;;5081721;28;20219;-82
2022/09/22 07:57:15;;;;;;;12.80;11.02;;;14.30;99.90;;;;;;5068893;28;20829;-82
2022/09/22 08:00:05;;;;;;;16.73;12.05;;;14.40;99.90;;;;;;5080222;28;20292;-81
2022/09/22 08:03:00;;;;;;;12.50;10.43;;;14.50;99.90;;;;;;5078992;28;20230;-82
2022/09/22 08:05:51;;;;;;;10.63;9.30;;;14.50;99.90;;;;;;5067763;28;20777;-82
2022/09/22 08:08:41;;;;;;;11.63;8.40;;;14.60;99.90;;;;;;5081518;28;20212;-81
2022/09/22 08:11:30;;;;;;;10.60;7.60;;;14.70;99.90;;;;;;5081493;28;20228;-82
2022/09/22 08:14:20;;;;;;;11.80;6.90;;;14.80;99.90;;;;;;5079551;28;20867;-81
2022/09/22 08:17:10;;;;;;;11.70;6.47;;;14.90;99.90;;;;;;5068719;28;20251;-83
2022/09/22 08:20:01;;;;;;;9.90;6.63;;;15.20;99.90;;;;;;5081301;28;20854;-85
2022/09/22 08:22:52;;;;;;;7.65;6.18;;;15.50;99.90;;;;;;5068766;28;20688;-84
2022/09/22 08:25:41;;;;;;;10.98;6.45;;;15.60;99.90;;;;;;5068927;28;21106;-88
2022/09/22 08:28:30;;;;;;;9.43;6.10;;;15.90;99.90;;;;;;5070535;28;20289;-85
2022/09/22 08:31:19;;;;;;;10.73;6.13;;;16.10;99.90;;;;;;5069204;28;20230;-89
2022/09/22 08:34:09;;;;;;;9.40;5.70;;;16.40;99.90;;;;;;5081720;28;20223;-85
2022/09/22 08:36:59;;;;;;;6.93;5.38;;;16.50;99.90;;;;;;5079620;28;20278;-85
2022/09/22 08:39:47;;;;;;;7.22;5.55;;;17.20;99.90;;;;;;5068982;28;20274;-85
2022/09/22 08:42:36;;;;;;;8.98;5.00;;;18.20;99.90;;;;;;5081578;28;20228;-84
2022/09/22 08:45:30;;;;;;;9.38;5.28;;;18.30;99.90;;;;;;5077950;28;20231;-83
2022/09/22 08:51:52;;;;;;;8.48;4.82;;;18.00;99.90;;;;;;5004859;28;20261;-84
2022/09/22 08:54:44;;;;;;;11.73;5.28;;;17.70;99.90;;;;;;5065627;28;20262;-87
2022/09/22 08:57:55;;;;;;;6.22;5.10;;;17.50;99.90;;;;;;5079967;28;20232;-84
2022/09/22 09:00:48;;;;;;;6.78;4.30;;;17.60;99.90;;;;;;5077762;28;20746;-79
2022/09/22 09:03:57;;;;;;;6.38;4.28;;;17.50;99.90;;;;;;5065283;28;20361;-79
2022/09/22 09:06:53;;;;;;;7.80;4.55;;;17.60;99.90;;;;;;5063744;28;20220;-79
2022/09/22 09:09:56;;;;;;;6.32;3.95;;;17.10;99.90;;;;;;5078138;28;20226;-82
2022/09/22 09:13:02;;;;;;;5.50;4.25;;;17.10;99.90;;;;;;5079379;28;20317;-83
2022/09/22 09:16:05;;;;;;;6.88;4.35;;;17.00;99.90;;;;;;5080012;28;20219;-82
2022/09/22 09:19:00;;;;;;;3.90;3.55;;;16.90;99.90;;;;;;5064745;28;20223;-83
2022/09/22 09:21:51;;;;;;;4.60;3.75;;;16.90;99.90;;;;;;5077974;28;20390;-83
2022/09/22 09:24:45;;;;;;;5.75;3.85;;;16.90;99.90;;;;;;5079448;28;20354;-82
2022/09/22 09:27:59;;;;;;;5.38;3.72;;;16.70;99.90;;;;;;5075544;28;20223;-83
2022/09/22 09:30:50;;;;;;;4.65;3.67;;;16.60;99.90;;;;;;5076120;28;20216;-82
2022/09/22 09:33:49;;;;;;;5.78;3.70;;;16.60;99.90;;;;;;5077701;28;20269;-83
2022/09/22 09:36:41;;;;;;;5.97;3.20;;;16.50;99.90;;;;;;5079182;28;20716;-83
2022/09/22 09:39:32;;;;;;;3.40;3.08;;;16.50;99.90;;;;;;5081038;28;20243;-83
2022/09/22 09:42:24;;;;;;;7.45;3.60;;;16.50;99.90;;;;;;5078836;28;20253;-82
2022/09/22 09:45:15;;;;;;;3.75;3.35;;;16.50;99.90;;;;;;5064708;28;21017;-83
2022/09/22 09:48:25;;;;;;;4.88;3.42;;;16.70;99.90;;;;;;5076530;28;20470;-83
2022/09/22 09:51:14;;;;;;;4.35;3.38;;;16.80;99.90;;;;;;5078796;28;20219;-83
2022/09/22 09:54:05;;;;;;;4.15;3.30;;;16.70;99.90;;;;;;5080527;28;20306;-83
2022/09/22 09:57:09;;;;;;;4.13;3.42;;;16.60;99.90;;;;;;5079697;28;20786;-84
2022/09/22 10:00:30;;;;;;;4.25;3.10;;;16.50;99.90;;;;;;5080958;28;20238;-85
2022/09/22 10:03:26;;;;;;;4.10;2.63;;;16.30;99.90;;;;;;5080757;28;20227;-84
2022/09/22 10:06:23;;;;;;;5.30;2.80;;;16.00;99.90;;;;;;5075530;28;20270;-83
2022/09/22 10:09:11;;;;;;;4.35;2.78;;;15.80;99.90;;;;;;5076607;28;20272;-84
2022/09/22 10:12:01;;;;;;;3.25;2.70;;;16.00;99.90;;;;;;5080638;28;20219;-85
2022/09/22 10:14:52;;;;;;;4.03;2.78;;;15.90;99.90;;;;;;5076556;28;20226;-81
2022/09/22 10:17:43;;;;;;;5.28;2.60;;;16.00;99.90;;;;;;5078265;28;20285;-82
2022/09/22 10:20:33;;;;;;;2.90;2.38;;;15.80;99.90;;;;;;5078656;28;20226;-83
2022/09/22 10:23:23;;;;;;;2.58;2.03;;;16.20;99.90;;;;;;5078120;28;20303;-82
2022/09/22 10:26:20;;;;;;;4.93;2.58;;;16.50;99.90;;;;;;5078303;28;20230;-83
2022/09/22 10:29:17;;;;;;;6.43;2.78;;;16.50;99.90;;;;;;5077061;28;20695;-84
2022/09/22 10:32:13;;;;;;;2.47;2.17;;;16.30;99.90;;;;;;5062180;28;20283;-84
2022/09/22 10:35:27;;;;;;;4.40;2.00;;;16.00;99.90;;;;;;5074440;28;20305;-85
2022/09/22 10:38:20;;;;;;;4.63;2.00;;;16.00;99.90;;;;;;5076481;28;20337;-83
2022/09/22 10:41:12;;;;;;;5.75;1.50;;;16.20;99.90;;;;;;5077973;28;20700;-89
2022/09/22 10:44:06;;;;;;;1.70;1.60;;;16.30;99.90;;;;;;5079427;28;20247;-86
2022/09/22 10:47:26;;;;;;;4.18;1.67;;;16.00;99.90;;;;;;5067079;28;20276;-88
2022/09/22 10:50:47;;;;;;;2.88;1.77;;;16.00;99.90;;;;;;5066847;28;20227;-92
2022/09/22 10:53:46;;;;;;;3.60;1.83;;;16.10;99.90;;;;;;5090988;28;20298;-92
2022/09/22 10:56:38;;;;;;;1.60;1.40;;;16.10;99.90;;;;;;5090526;28;20223;-93
2022/09/22 10:59:47;;;;;;;3.03;1.60;;;16.10;99.90;;;;;;5092255;28;20282;-93
2022/09/22 11:03:14;;;;;;;4.15;1.60;;;16.20;99.90;;;;;;5095613;28;20230;-93
2022/09/22 11:12:53;;;;;;;2.40;2.20;;;16.40;99.90;;;;;;5082595;28;20286;-84
2022/09/22 11:16:01;;;;;;;5.65;1.80;;;16.30;99.90;;;;;;5066365;28;20828;-85
2022/09/22 11:19:12;;;;;;;3.00;1.95;;;15.80;99.90;;;;;;5080458;28;20215;-85
2022/09/22 11:22:20;;;;;;;4.50;2.00;;;15.80;99.90;;;;;;5085601;28;21073;-84
2022/09/22 11:25:22;;;;;;;2.47;1.50;;;15.80;99.90;;;;;;5086530;28;20306;-85
2022/09/22 11:28:30;;;;;;;4.10;1.95;;;15.60;99.90;;;;;;5085085;28;20223;-86
2022/09/22 11:31:36;;;;;;;3.05;1.80;;;15.80;99.90;;;;;;5086699;28;20234;-86
2022/09/22 11:34:55;;;;;;;3.10;2.00;;;15.70;99.90;;;;;;5087462;28;20223;-85
2022/09/22 11:37:53;;;;;;;2.78;2.20;;;16.00;99.90;;;;;;5084897;28;20246;-86
2022/09/22 11:41:01;;;;;;;3.50;2.10;;;16.20;99.90;;;;;;5071495;28;20250;-85
2022/09/22 11:44:04;;;;;;;3.95;1.85;;;16.20;99.90;;;;;;5086059;28;20211;-86
2022/09/22 11:47:20;;;;;;;5.50;2.00;;;16.20;99.90;;;;;;5084241;28;20621;-86
2022/09/22 11:50:25;;;;;;;6.05;2.25;;;16.00;99.90;;;;;;5086419;28;20329;-86
2022/09/22 11:53:53;;;;;;;4.97;1.95;;;15.90;99.90;;;;;;5081828;28;20300;-87
2022/09/22 11:56:44;;;;;;;4.78;2.45;;;15.90;99.90;;;;;;5083403;28;20223;-88
2022/09/22 11:59:38;;;;;;;4.68;2.20;;;16.00;99.90;;;;;;5081368;28;20235;-86
2022/09/22 12:02:34;;;;;;;4.22;2.75;;;15.70;99.90;;;;;;5081249;28;20280;-89
2022/09/22 12:05:27;;;;;;;3.17;2.08;;;15.90;99.90;;;;;;5087016;28;20230;-85
2022/09/22 12:08:19;;;;;;;3.22;2.20;;;16.00;99.90;;;;;;5070995;28;20728;-86
2022/09/22 12:11:13;;;;;;;4.63;1.90;;;16.00;99.90;;;;;;5086234;28;20223;-89
2022/09/22 12:14:02;;;;;;;2.22;1.98;;;16.10;99.90;;;;;;5085166;28;20303;-88
2022/09/22 12:16:58;;;;;;;3.88;2.17;;;15.90;99.90;;;;;;5086554;28;20313;-86
2022/09/22 12:19:56;;;;;;;3.75;2.35;;;15.70;99.90;;;;;;5083985;28;20296;-86
2022/09/22 12:23:05;;;;;;;3.03;2.08;;;15.80;99.90;;;;;;5080685;28;20243;-88
2022/09/22 12:25:55;;;;;;;2.22;2.03;;;16.00;99.90;;;;;;5085051;28;20239;-85
2022/09/22 12:28:46;;;;;;;3.30;2.10;;;16.10;99.90;;;;;;5081287;28;20303;-86
2022/09/22 12:31:35;;;;;;;4.35;2.30;;;16.30;99.90;;;;;;5082513;28;20796;-87
2022/09/22 12:34:26;;;;;;;4.07;2.50;;;16.40;99.90;;;;;;5080801;28;21114;-86
2022/09/22 12:37:25;;;;;;;2.65;2.20;;;16.10;99.90;;;;;;5081837;28;20220;-84
2022/09/22 12:40:28;;;;;;;4.18;2.35;;;16.00;99.90;;;;;;5079912;28;20915;-84
2022/09/22 12:43:20;;;;;;;5.68;2.58;;;16.10;99.90;;;;;;5079991;28;20215;-85
2022/09/22 12:46:21;;;;;;;3.85;2.45;;;16.10;99.90;;;;;;5067265;28;20322;-86
2022/09/22 12:49:13;;;;;;;4.22;2.30;;;15.90;99.90;;;;;;5080175;28;20243;-85
2022/09/22 12:52:02;;;;;;;2.80;2.55;;;15.90;99.90;;;;;;5065517;28;20223;-86
2022/09/22 12:54:51;;;;;;;3.13;2.10;;;15.90;99.90;;;;;;5078586;28;20330;-86
2022/09/22 12:57:44;;;;;;;2.58;2.30;;;15.70;99.90;;;;;;5067135;28;20223;-86
2022/09/22 13:00:35;;;;;;;2.67;2.20;;;15.50;99.90;;;;;;5083467;28;20281;-87
2022/09/22 13:03:49;;;;;;;3.30;2.30;;;15.40;99.90;;;;;;5080943;28;20234;-86
2022/09/22 13:06:59;;;;;;;3.15;2.33;;;15.50;99.90;;;;;;5080008;28;20223;-85
2022/09/22 13:09:48;;;;;;;3.58;2.60;;;15.40;99.90;;;;;;5081102;28;20294;-85
2022/09/22 13:12:36;;;;;;;3.42;2.60;;;15.50;99.90;;;;;;5079198;28;20219;-86
2022/09/22 13:15:27;;;;;;;2.55;2.35;;;15.40;99.90;;;;;;5063177;28;20215;-83
2022/09/22 13:18:29;;;;;;;3.13;2.83;;;15.40;99.90;;;;;;5080205;28;20219;-83
2022/09/22 13:21:25;;;;;;;5.05;2.40;;;15.50;99.90;;;;;;5077534;28;20352;-83
2022/09/22 13:24:23;;;;;;;4.35;2.75;;;15.80;99.90;;;;;;5078245;28;20219;-82
2022/09/22 13:27:14;;;;;;;4.43;2.97;;;15.90;99.90;;;;;;5078210;28;20226;-84
2022/09/22 13:30:09;;;;;;;5.50;2.70;;;15.80;99.90;;;;;;5081034;28;20250;-84
2022/09/22 13:32:57;;;;;;;3.13;2.42;;;15.90;99.90;;;;;;5080754;28;20255;-83
2022/09/22 13:35:46;;;;;;;3.13;2.60;;;16.20;99.90;;;;;;5076050;28;20340;-81
2022/09/22 13:38:39;;;;;;;3.10;2.80;;;16.00;99.90;;;;;;5080196;28;20269;-82
2022/09/22 13:41:33;;;;;;;2.75;2.42;;;16.00;99.90;;;;;;5080637;28;20219;-82
2022/09/22 13:44:27;;;;;;;2.65;2.42;;;16.00;99.90;;;;;;5078705;28;20292;-82
2022/09/22 13:47:18;;;;;;;3.00;2.70;;;16.10;99.90;;;;;;5066081;28;20230;-82
2022/09/22 13:50:12;;;;;;;3.97;2.47;;;16.10;99.90;;;;;;5078784;28;20368;-82
2022/09/22 13:53:01;;;;;;;4.32;2.70;;;16.10;99.90;;;;;;5080793;28;20915;-82
2022/09/22 13:55:52;;;;;;;5.20;2.90;;;16.00;99.90;;;;;;5079795;28;20796;-82
2022/09/22 13:58:43;;;;;;;3.47;3.03;;;16.00;99.90;;;;;;5080209;28;20486;-81
2022/09/22 14:01:32;;;;;;;3.17;2.85;;;16.00;99.90;;;;;;5079609;28;20231;-82
2022/09/22 14:04:24;;;;;;;4.95;2.60;;;16.00;99.90;;;;;;5080842;28;20238;-82
2022/09/22 14:07:13;;;;;;;3.35;3.00;;;15.90;99.90;;;;;;5079926;28;20231;-82
2022/09/22 14:10:02;;;;;;;2.63;2.40;;;15.90;99.90;;;;;;5078936;28;20298;-81
2022/09/22 14:12:52;;;;;;;2.90;2.60;;;15.80;99.90;;;;;;5079829;28;20232;-82
2022/09/22 14:15:43;;;;;;;3.00;2.70;;;15.70;99.90;;;;;;5066835;28;20686;-82
2022/09/22 14:18:32;;;;;;;2.70;2.20;;;15.70;99.90;;;;;;5078806;28;20224;-82
2022/09/22 14:21:21;;;;;;;3.47;2.47;;;15.70;99.90;;;;;;5075875;28;20817;-81
2022/09/22 14:24:13;;;;;;;3.80;2.50;;;15.70;99.90;;;;;;5079332;28;20235;-81
2022/09/22 14:27:04;;;;;;;3.35;2.53;;;15.70;99.90;;;;;;5078251;28;20691;-82
2022/09/22 14:29:56;;;;;;;7.75;3.03;;;15.70;99.90;;;;;;5079635;28;20236;-81
2022/09/22 14:32:50;;;;;;;3.17;2.88;;;15.60;99.90;;;;;;5076764;28;20224;-82
2022/09/22 14:35:40;;;;;;;4.78;2.58;;;15.40;99.90;;;;;;5063854;28;20766;-82
2022/09/22 14:38:33;;;;;;;3.08;2.40;;;15.50;99.90;;;;;;5075736;28;20230;-82
2022/09/22 14:41:23;;;;;;;2.55;2.20;;;15.30;99.90;;;;;;5057564;28;20286;-81
2022/09/22 14:44:41;;;;;;;4.68;2.53;;;15.20;99.90;;;;;;5074632;28;20320;-81
2022/09/22 14:47:37;;;;;;;3.78;2.40;;;15.20;99.90;;;;;;5077137;28;20231;-82
2022/09/22 14:50:38;;;;;;;4.38;2.42;;;15.10;99.90;;;;;;5078396;28;20325;-76
2022/09/22 14:53:30;;;;;;;4.90;2.53;;;15.00;99.90;;;;;;5079345;28;20951;-77
2022/09/22 14:56:21;;;;;;;2.40;2.20;;;14.90;99.90;;;;;;5078823;28;20586;-77
2022/09/22 15:02:32;;;;;;;5.63;2.70;;;15.00;99.90;;;;;;5045208;28;20230;-76
2022/09/22 15:05:27;;;;;;;4.60;2.78;;;15.00;99.90;;;;;;5084898;28;20218;-77